Time;durP1;ratioP1;P1;durP2;ratioP2;P2;SDS_P1;SDS_P2;PMS_P1;PMS_P2;Temp;Humidity;BMP_temperature;BMP_pressure;BME280_temperature;BME280_humidity;BME280_pressure;Samples;Min_cycle;Max_cycle;Signal;HPM_P1;HPM_P2
2022/09/08 00:01:20;;;;;;;11.05;5.15;;;;;;;17.99;90.27;100838.84;4950949;29;20039;-68
2022/09/08 00:03:46;;;;;;;9.73;5.50;;;;;;;17.98;92.33;100831.81;4950815;29;20033;-68
2022/09/08 00:06:16;;;;;;;15.40;6.00;;;;;;;17.88;92.74;100832.47;4951020;28;20182;-68
2022/09/08 00:08:43;;;;;;;11.07;5.65;;;;;;;17.86;94.24;100826.50;4950930;29;20475;-68
2022/09/08 00:11:10;;;;;;;10.32;5.15;;;;;;;17.81;93.80;100823.72;4931713;29;20062;-68
2022/09/08 00:13:38;;;;;;;14.05;5.82;;;;;;;17.75;94.18;100814.69;4931321;29;20051;-68
2022/09/08 00:16:06;;;;;;;11.07;5.63;;;;;;;17.70;95.31;100817.31;4932190;29;20032;-68
2022/09/08 00:18:31;;;;;;;11.00;5.18;;;;;;;17.66;95.76;100826.16;4935516;29;20083;-68
2022/09/08 00:20:57;;;;;;;13.57;6.00;;;;;;;17.55;96.38;100822.44;4935422;29;20039;-68
2022/09/08 00:23:22;;;;;;;12.23;5.25;;;;;;;17.58;96.36;100826.53;4935193;29;20651;-68
2022/09/08 00:25:48;;;;;;;12.63;5.75;;;;;;;17.57;96.73;100816.81;4935251;29;20031;-68
2022/09/08 00:28:14;;;;;;;13.52;4.82;;;;;;;17.55;97.28;100819.75;4935119;29;20098;-68
2022/09/08 00:30:39;;;;;;;8.82;4.20;;;;;;;17.52;98.10;100810.28;4935173;29;20036;-68
2022/09/08 00:33:04;;;;;;;9.90;4.47;;;;;;;17.54;98.28;100812.75;4935390;29;20042;-69
2022/09/08 00:35:30;;;;;;;4.63;3.72;;;;;;;17.56;98.05;100815.19;4935406;29;20038;-68
2022/09/08 00:37:55;;;;;;;8.43;4.88;;;;;;;17.51;99.13;100819.44;4935295;29;20031;-68
2022/09/08 00:40:23;;;;;;;9.60;4.32;;;;;;;17.49;98.87;100813.47;4934871;29;20020;-69
2022/09/08 00:43:07;;;;;;;8.20;3.97;;;;;;;17.44;97.85;100820.66;4935160;29;20042;-69
2022/09/08 00:45:47;;;;;;;8.23;4.65;;;;;;;17.40;98.30;100835.69;4935214;29;20893;-68
2022/09/08 00:48:17;;;;;;;12.30;4.40;;;;;;;17.34;98.17;100825.84;4935131;29;20490;-68
2022/09/08 00:50:45;;;;;;;11.82;4.60;;;;;;;17.27;98.00;100823.31;4934961;29;20032;-68
2022/09/08 00:53:13;;;;;;;11.18;3.53;;;;;;;17.13;99.21;100809.31;4935071;29;20089;-68
2022/09/08 00:55:39;;;;;;;9.35;3.45;;;;;;;17.12;99.05;100796.09;4919120;29;20039;-68
2022/09/08 00:58:06;;;;;;;8.98;3.55;;;;;;;17.04;99.75;100789.22;4916769;29;20040;-68
2022/09/08 01:00:34;;;;;;;7.90;3.42;;;;;;;17.02;100.00;100792.13;4916799;29;20641;-68
2022/09/08 01:02:59;;;;;;;11.82;4.00;;;;;;;17.00;100.00;100780.81;4916650;29;20040;-68
2022/09/08 01:05:30;;;;;;;8.88;3.58;;;;;;;16.97;100.00;100786.63;4916521;29;20039;-68
2022/09/08 01:14:09;;;;;;;12.52;3.10;;;;;;;16.83;100.00;100763.75;4917174;29;20043;-68
2022/09/08 01:16:40;;;;;;;7.97;2.83;;;;;;;16.78;100.00;100766.34;4953255;29;20031;-68
2022/09/08 01:19:18;;;;;;;9.45;3.45;;;;;;;16.75;100.00;100754.16;4953578;29;20081;-68
2022/09/08 01:22:03;;;;;;;3.00;2.35;;;;;;;16.73;100.00;100750.88;4953806;28;20058;-68
2022/09/08 01:24:41;;;;;;;8.43;3.10;;;;;;;16.72;100.00;100754.63;4953086;28;20035;-68
2022/09/08 01:27:18;;;;;;;8.45;3.75;;;;;;;16.71;100.00;100741.41;4952885;28;20031;-68
2022/09/08 01:29:45;;;;;;;7.30;3.63;;;;;;;16.70;100.00;100735.19;4952989;29;20035;-68
2022/09/08 01:32:13;;;;;;;6.93;3.03;;;;;;;16.66;100.00;100731.34;4953369;28;20490;-68
2022/09/08 01:34:44;;;;;;;7.53;3.25;;;;;;;16.69;100.00;100732.72;4953078;28;20474;-68
2022/09/08 01:37:10;;;;;;;3.40;1.88;;;;;;;16.63;100.00;100724.56;4953251;29;20110;-68
2022/09/08 01:39:35;;;;;;;4.20;2.60;;;;;;;16.63;100.00;100732.63;4953180;29;20027;-68
2022/09/08 01:42:01;;;;;;;6.47;2.90;;;;;;;16.63;100.00;100721.84;4953228;29;20090;-69
2022/09/08 01:44:28;;;;;;;10.23;3.25;;;;;;;16.62;100.00;100720.25;4953255;28;20114;-68
2022/09/08 01:46:53;;;;;;;7.90;3.03;;;;;;;16.56;100.00;100715.81;4953173;29;20059;-68
2022/09/08 01:49:19;;;;;;;6.50;2.28;;;;;;;16.50;100.00;100722.13;4952943;29;20584;-68
2022/09/08 01:51:44;;;;;;;8.15;3.03;;;;;;;16.44;100.00;100715.03;4953112;29;20483;-68
2022/09/08 01:54:09;;;;;;;4.50;2.53;;;;;;;16.43;100.00;100718.78;4953028;29;20113;-68
2022/09/08 01:56:35;;;;;;;7.20;2.67;;;;;;;16.42;100.00;100719.84;4934713;29;20424;-68
2022/09/08 01:59:01;;;;;;;2.15;1.70;;;;;;;16.37;100.00;100715.19;4952620;28;20384;-68
2022/09/08 02:01:26;;;;;;;7.78;2.15;;;;;;;16.35;100.00;100711.91;4952891;29;20043;-68
2022/09/08 02:03:52;;;;;;;4.15;2.15;;;;;;;16.35;100.00;100714.59;4952451;28;20042;-68
2022/09/08 02:06:17;;;;;;;2.58;2.17;;;;;;;16.33;100.00;100708.63;4952638;28;20031;-68
2022/09/08 02:08:43;;;;;;;4.28;2.20;;;;;;;16.35;100.00;100706.53;4952487;29;20126;-68
2022/09/08 02:11:09;;;;;;;7.28;2.65;;;;;;;16.28;100.00;100686.19;4952666;29;20503;-68
2022/09/08 02:13:35;;;;;;;3.50;2.15;;;;;;;16.28;100.00;100692.38;4952725;29;20403;-65
2022/09/08 02:16:06;;;;;;;4.72;2.50;;;;;;;16.29;100.00;100696.69;4952309;29;20038;-65
2022/09/08 02:18:32;;;;;;;7.38;2.90;;;;;;;16.28;100.00;100681.63;4936232;29;20020;-65
2022/09/08 02:21:06;;;;;;;3.90;2.08;;;;;;;16.31;100.00;100683.81;4952029;29;20031;-65
2022/09/08 02:23:33;;;;;;;5.07;2.58;;;;;;;16.29;100.00;100682.41;4952096;28;20142;-65
2022/09/08 02:25:58;;;;;;;6.22;3.00;;;;;;;16.29;100.00;100680.53;4951963;29;20073;-65
2022/09/08 02:28:24;;;;;;;4.55;2.55;;;;;;;16.27;100.00;100680.00;4952551;29;20039;-65
2022/09/08 02:30:49;;;;;;;5.28;2.25;;;;;;;16.26;100.00;100682.91;4951729;29;20087;-65
2022/09/08 02:33:15;;;;;;;6.50;2.70;;;;;;;16.23;100.00;100681.50;4952334;29;20023;-65
2022/09/08 02:35:41;;;;;;;5.50;2.67;;;;;;;16.21;100.00;100687.13;4952318;29;20031;-65
2022/09/08 02:38:06;;;;;;;4.22;2.50;;;;;;;16.14;100.00;100672.19;4952058;28;20035;-65
2022/09/08 02:40:32;;;;;;;6.00;2.85;;;;;;;16.15;100.00;100669.25;4934196;29;20035;-65
2022/09/08 02:42:58;;;;;;;6.07;3.17;;;;;;;16.15;100.00;100668.44;4952034;29;20118;-65
2022/09/08 02:45:23;;;;;;;3.40;2.58;;;;;;;16.16;100.00;100670.06;4951922;29;20035;-65
2022/09/08 02:47:49;;;;;;;6.47;2.60;;;;;;;16.16;100.00;100662.78;4951945;29;20462;-65
2022/09/08 02:50:14;;;;;;;4.03;2.60;;;;;;;16.14;100.00;100661.44;4951984;29;20039;-65
2022/09/08 02:52:40;;;;;;;5.57;2.53;;;;;;;16.23;100.00;100662.66;4934779;29;20078;-65
2022/09/08 02:55:05;;;;;;;4.88;2.53;;;;;;;16.21;100.00;100665.59;4951903;29;20071;-65
2022/09/08 02:57:30;;;;;;;3.95;2.33;;;;;;;16.24;100.00;100675.06;4951974;29;20032;-65
2022/09/08 02:59:56;;;;;;;5.97;2.67;;;;;;;16.24;100.00;100677.75;4951686;28;20394;-65
2022/09/08 03:02:21;;;;;;;5.63;2.60;;;;;;;16.25;100.00;100665.94;4951712;29;20035;-65
2022/09/08 03:04:46;;;;;;;7.53;3.20;;;;;;;16.32;100.00;100682.78;4951697;29;20552;-66
2022/09/08 03:07:12;;;;;;;6.03;3.65;;;;;;;16.31;100.00;100675.75;4951740;29;20037;-65
2022/09/08 03:09:37;;;;;;;6.95;3.33;;;;;;;16.33;100.00;100670.13;4951468;29;20055;-65
2022/09/08 03:12:03;;;;;;;9.90;4.38;;;;;;;16.36;100.00;100658.88;4951676;28;20046;-65
2022/09/08 03:14:28;;;;;;;7.45;4.15;;;;;;;16.39;100.00;100669.16;4951525;29;20134;-65
2022/09/08 03:16:54;;;;;;;10.63;3.92;;;;;;;16.38;100.00;100676.44;4951368;28;20466;-65
2022/09/08 03:19:19;;;;;;;5.03;3.67;;;;;;;16.38;100.00;100676.44;4934247;29;20187;-65
2022/09/08 03:21:44;;;;;;;4.28;2.92;;;;;;;16.37;100.00;100682.03;4951330;29;20053;-65
2022/09/08 03:24:10;;;;;;;9.23;4.00;;;;;;;16.36;100.00;100683.13;4951230;29;20438;-65
2022/09/08 03:26:35;;;;;;;6.70;3.33;;;;;;;16.38;100.00;100691.78;4951003;28;20400;-65
2022/09/08 03:29:00;;;;;;;7.13;2.95;;;;;;;16.35;100.00;100673.41;4950926;29;20035;-65
2022/09/08 03:31:26;;;;;;;6.32;4.13;;;;;;;16.34;100.00;100671.75;4951023;29;20031;-65
2022/09/08 03:33:53;;;;;;;13.55;4.03;;;;;;;16.33;100.00;100675.53;4951068;29;20042;-65
2022/09/08 03:36:19;;;;;;;7.60;5.03;;;;;;;16.34;100.00;100669.88;4951128;29;20085;-64
2022/09/08 03:38:45;;;;;;;9.63;3.70;;;;;;;16.30;100.00;100655.28;4951647;29;20035;-65
2022/09/08 03:41:13;;;;;;;7.07;3.78;;;;;;;16.35;100.00;100657.25;4916109;29;20444;-65
2022/09/08 03:43:47;;;;;;;6.78;4.20;;;;;;;16.35;100.00;100670.72;4951259;29;20556;-65
2022/09/08 03:46:13;;;;;;;6.13;4.00;;;;;;;16.32;100.00;100673.88;4951347;28;20046;-65
2022/09/08 03:48:39;;;;;;;12.10;4.97;;;;;;;16.32;100.00;100677.41;4915989;29;20032;-65
2022/09/08 03:51:17;;;;;;;8.70;3.95;;;;;;;16.34;100.00;100679.84;4932514;28;20483;-65
2022/09/08 03:53:44;;;;;;;9.18;3.63;;;;;;;16.32;100.00;100684.63;4932738;29;20044;-65
2022/09/08 03:56:10;;;;;;;8.23;4.18;;;;;;;16.26;100.00;100691.78;4932399;29;20023;-65
2022/09/08 03:58:37;;;;;;;9.00;3.33;;;;;;;16.30;100.00;100697.53;4951116;29;20039;-65
2022/09/08 04:01:17;;;;;;;9.20;4.18;;;;;;;16.26;100.00;100694.47;4950867;29;20035;-65
2022/09/08 04:03:43;;;;;;;6.97;3.40;;;;;;;16.26;100.00;100689.09;4950890;28;20046;-65
2022/09/08 04:06:08;;;;;;;6.85;3.08;;;;;;;16.25;100.00;100665.94;4950897;28;20122;-65
2022/09/08 04:08:34;;;;;;;10.10;4.10;;;;;;;16.24;100.00;100655.41;4950983;29;20154;-65
2022/09/08 04:11:00;;;;;;;8.57;4.05;;;;;;;16.23;100.00;100659.97;4950394;29;21005;-65
2022/09/08 04:13:26;;;;;;;5.35;3.28;;;;;;;16.21;100.00;100664.78;4950903;29;20042;-65
2022/09/08 04:15:52;;;;;;;7.07;3.33;;;;;;;16.23;100.00;100678.00;4950709;29;20024;-65
2022/09/08 04:18:18;;;;;;;12.35;5.10;;;;;;;16.20;100.00;100680.09;4950436;29;20034;-65
2022/09/08 04:20:43;;;;;;;7.03;3.80;;;;;;;16.20;100.00;100673.91;4950711;29;20097;-65
2022/09/08 04:23:09;;;;;;;7.75;3.13;;;;;;;16.17;100.00;100675.22;4950612;29;20489;-65
2022/09/08 04:25:35;;;;;;;6.32;3.28;;;;;;;16.14;100.00;100669.50;4942331;29;20058;-66
2022/09/08 04:28:00;;;;;;;9.52;3.67;;;;;;;16.09;100.00;100675.59;4932382;29;20040;-66
2022/09/08 04:30:25;;;;;;;11.32;3.17;;;;;;;16.08;100.00;100670.44;4931970;29;20122;-65
2022/09/08 04:32:51;;;;;;;7.97;3.50;;;;;;;16.04;100.00;100671.97;4932133;29;20032;-65
2022/09/08 04:35:17;;;;;;;4.78;2.80;;;;;;;16.02;100.00;100680.28;4932009;29;20047;-65
2022/09/08 04:37:42;;;;;;;5.63;2.92;;;;;;;16.01;100.00;100686.72;4932301;29;20391;-65
2022/09/08 04:40:08;;;;;;;9.27;3.20;;;;;;;16.00;100.00;100693.13;4932028;29;20584;-65
2022/09/08 04:42:35;;;;;;;5.85;3.25;;;;;;;15.98;100.00;100696.06;4932345;29;20452;-66
2022/09/08 04:45:01;;;;;;;6.13;3.72;;;;;;;16.01;100.00;100694.78;4932157;29;20110;-66
2022/09/08 04:47:26;;;;;;;8.32;3.85;;;;;;;15.96;100.00;100684.72;4932266;29;20123;-65
2022/09/08 04:49:53;;;;;;;7.45;3.65;;;;;;;16.03;100.00;100697.22;4932115;29;20460;-66
2022/09/08 04:52:20;;;;;;;8.70;3.58;;;;;;;16.04;100.00;100704.25;4932150;29;20043;-65
2022/09/08 04:54:46;;;;;;;8.48;3.40;;;;;;;16.05;100.00;100700.50;4932220;29;20039;-65
2022/09/08 04:57:12;;;;;;;9.07;3.20;;;;;;;16.01;100.00;100700.16;4932298;29;20028;-66
2022/09/08 04:59:37;;;;;;;8.00;3.22;;;;;;;16.03;100.00;100702.59;4932225;29;20059;-66
2022/09/08 05:02:03;;;;;;;9.88;3.58;;;;;;;16.03;100.00;100694.53;4932691;29;20122;-66
2022/09/08 05:04:28;;;;;;;8.60;3.67;;;;;;;16.04;100.00;100707.75;4935610;29;20494;-65
2022/09/08 05:06:53;;;;;;;13.23;3.50;;;;;;;15.99;100.00;100700.38;4935572;29;20031;-66
2022/09/08 05:09:19;;;;;;;7.97;3.10;;;;;;;16.02;100.00;100704.47;4935018;29;20043;-65
2022/09/08 05:11:44;;;;;;;10.88;3.90;;;;;;;16.00;100.00;100704.69;4935432;29;20151;-65
2022/09/08 05:14:10;;;;;;;7.43;3.22;;;;;;;15.98;100.00;100706.00;4935072;29;20028;-65
2022/09/08 05:16:35;;;;;;;7.72;3.05;;;;;;;15.96;100.00;100702.75;4934987;29;20475;-65
2022/09/08 05:19:03;;;;;;;6.97;3.30;;;;;;;15.97;100.00;100696.31;4935125;29;20432;-65
2022/09/08 05:21:30;;;;;;;6.72;3.55;;;;;;;15.93;100.00;100695.16;4935379;29;20386;-65
2022/09/08 05:23:56;;;;;;;6.35;3.10;;;;;;;15.99;100.00;100697.69;4935316;29;20035;-65
2022/09/08 05:26:24;;;;;;;5.40;2.97;;;;;;;15.99;100.00;100705.78;4953357;29;20051;-65
2022/09/08 05:28:49;;;;;;;7.28;3.53;;;;;;;16.01;100.00;100705.53;4953397;29;20459;-65
2022/09/08 05:31:18;;;;;;;8.55;3.47;;;;;;;16.02;100.00;100700.97;4952978;28;20054;-65
2022/09/08 05:33:44;;;;;;;8.10;3.67;;;;;;;15.99;100.00;100696.88;4953407;29;20031;-65
2022/09/08 05:36:18;;;;;;;5.32;3.42;;;;;;;15.98;100.00;100697.91;4952688;29;20049;-65
2022/09/08 05:38:44;;;;;;;6.60;2.97;;;;;;;16.03;100.00;100702.59;4953229;28;20035;-65
2022/09/08 05:41:11;;;;;;;7.53;3.30;;;;;;;15.99;100.00;100695.00;4953051;29;20486;-65
2022/09/08 05:43:37;;;;;;;4.60;3.45;;;;;;;16.02;100.00;100700.97;4953171;28;20031;-65
2022/09/08 05:46:04;;;;;;;6.72;3.03;;;;;;;15.99;100.00;100695.00;4952938;29;20031;-65
2022/09/08 05:48:30;;;;;;;4.63;2.53;;;;;;;15.97;100.00;100699.78;4952980;29;20038;-65
2022/09/08 05:50:55;;;;;;;5.03;3.35;;;;;;;15.95;100.00;100690.31;4952700;28;20090;-65
2022/09/08 05:53:21;;;;;;;10.23;4.60;;;;;;;15.98;100.00;100695.22;4952940;29;20106;-65
2022/09/08 05:55:56;;;;;;;8.05;4.03;;;;;;;15.96;100.00;100700.88;4952955;29;20035;-65
2022/09/08 05:58:21;;;;;;;5.10;3.20;;;;;;;15.94;100.00;100704.84;4952893;29;20055;-65
2022/09/08 06:01:02;;;;;;;13.25;3.90;;;;;;;15.97;100.00;100709.75;4951640;29;20525;-65
2022/09/08 06:03:28;;;;;;;7.25;3.15;;;;;;;15.96;100.00;100700.88;4934311;29;20044;-65
2022/09/08 06:05:55;;;;;;;8.60;4.13;;;;;;;15.98;100.00;100701.47;4952605;29;20027;-65
2022/09/08 06:08:22;;;;;;;10.75;3.78;;;;;;;15.98;100.00;100706.00;4952589;29;20406;-65
2022/09/08 06:10:49;;;;;;;9.82;3.80;;;;;;;15.99;100.00;100705.78;4952202;29;20051;-65
2022/09/08 06:13:15;;;;;;;7.00;4.35;;;;;;;15.98;100.00;100709.53;4952482;28;20042;-64
2022/09/08 06:15:40;;;;;;;8.38;3.85;;;;;;;15.97;100.00;100699.00;4952421;29;20027;-64
2022/09/08 06:18:05;;;;;;;7.88;3.65;;;;;;;15.99;100.00;100705.78;4952693;29;20390;-64
2022/09/08 06:20:31;;;;;;;8.77;3.63;;;;;;;16.02;100.00;100704.47;4952010;29;20039;-64
2022/09/08 06:22:56;;;;;;;9.98;4.45;;;;;;;16.05;100.00;100700.50;4952293;29;20036;-64
2022/09/08 06:25:21;;;;;;;11.80;4.60;;;;;;;16.06;100.00;100715.56;4952220;28;20058;-65
2022/09/08 06:28:08;;;;;;;10.48;4.47;;;;;;;16.05;100.00;100714.75;4952349;29;20542;-65
2022/09/08 06:30:34;;;;;;;8.15;3.70;;;;;;;16.06;100.00;100710.19;4933747;29;20137;-65
2022/09/08 06:33:08;;;;;;;8.35;5.00;;;;;;;16.03;100.00;100706.09;4933438;29;20451;-65
2022/09/08 06:35:42;;;;;;;12.55;4.72;;;;;;;16.07;100.00;100703.78;4952150;29;20042;-65
2022/09/08 06:38:15;;;;;;;9.70;4.75;;;;;;;16.08;100.00;100710.78;4933356;29;20043;-65
2022/09/08 06:40:45;;;;;;;12.23;4.60;;;;;;;16.09;100.00;100710.56;4952069;29;20023;-65
2022/09/08 06:43:38;;;;;;;7.30;4.78;;;;;;;16.12;100.00;100707.38;4952239;29;20034;-65
2022/09/08 06:46:11;;;;;;;9.95;4.80;;;;;;;16.12;100.00;100712.78;4933659;29;20042;-66
2022/09/08 06:48:38;;;;;;;8.77;4.82;;;;;;;16.14;100.00;100718.75;4933559;29;20106;-65
2022/09/08 06:51:21;;;;;;;10.75;4.15;;;;;;;16.15;100.00;100719.56;4933365;29;20046;-65
2022/09/08 06:53:57;;;;;;;10.50;3.58;;;;;;;16.13;100.00;100717.09;4951543;29;20506;-66
2022/09/08 06:57:00;;;;;;;6.50;3.30;;;;;;;16.18;100.00;100719.06;4951754;29;20470;-65
2022/09/08 06:59:55;;;;;;;8.05;4.65;;;;;;;16.22;100.00;100725.63;4951543;28;20493;-68
2022/09/08 07:02:33;;;;;;;11.18;4.78;;;;;;;16.24;100.00;100720.81;4932800;29;20028;-68
2022/09/08 07:05:16;;;;;;;7.75;3.67;;;;;;;16.30;100.00;100716.38;4933218;29;20051;-69
2022/09/08 07:08:03;;;;;;;6.78;3.60;;;;;;;16.36;100.00;100715.41;4933128;29;20483;-66
2022/09/08 07:10:35;;;;;;;8.95;4.18;;;;;;;16.38;100.00;100718.69;4932925;29;20103;-68
2022/09/08 07:13:02;;;;;;;8.55;3.15;;;;;;;16.42;100.00;100719.84;4933191;29;20087;-68
2022/09/08 07:15:56;;;;;;;8.70;3.20;;;;;;;16.47;100.00;100728.00;4933230;29;20129;-68
2022/09/08 07:18:32;;;;;;;12.30;5.57;;;;;;;16.48;100.00;100726.97;4951125;29;20278;-68
2022/09/08 07:21:16;;;;;;;7.82;3.95;;;;;;;16.50;100.00;100724.84;4951185;29;20035;-71
2022/09/08 07:23:43;;;;;;;7.80;4.35;;;;;;;16.54;100.00;100725.19;4951421;28;20031;-69
2022/09/08 07:26:19;;;;;;;8.43;4.20;;;;;;;16.57;100.00;100728.22;4951004;28;20368;-70
2022/09/08 07:28:49;;;;;;;10.35;4.60;;;;;;;16.57;100.00;100730.09;4950884;29;20031;-71
2022/09/08 07:31:22;;;;;;;8.63;4.40;;;;;;;16.64;100.00;100731.59;4950965;29;20387;-70
2022/09/08 07:34:03;;;;;;;9.05;3.95;;;;;;;16.68;100.00;100741.88;4951136;29;20499;-70
2022/09/08 07:37:12;;;;;;;7.93;4.00;;;;;;;16.78;100.00;100731.34;4950842;28;20046;-70
2022/09/08 07:39:50;;;;;;;9.93;4.85;;;;;;;16.85;100.00;100721.25;4939434;29;20031;-71
2022/09/08 07:42:16;;;;;;;10.10;3.97;;;;;;;16.89;100.00;100729.66;4932947;29;20460;-71
2022/09/08 07:44:42;;;;;;;12.52;4.97;;;;;;;16.92;100.00;100723.78;4932910;29;20106;-71
2022/09/08 07:47:32;;;;;;;9.65;5.15;;;;;;;16.98;100.00;100728.22;4932686;28;20027;-71
2022/09/08 07:49:57;;;;;;;9.95;5.38;;;;;;;17.02;100.00;100729.34;4932527;29;20040;-71
2022/09/08 07:52:45;;;;;;;14.63;5.70;;;;;;;17.06;100.00;100736.72;4950453;29;20031;-70
2022/09/08 07:55:39;;;;;;;10.05;5.00;;;;;;;17.09;100.00;100733.53;4950978;28;20282;-71
2022/09/08 07:58:11;;;;;;;13.75;6.15;;;;;;;17.17;100.00;100728.81;4929312;28;20034;-70
2022/09/08 08:00:43;;;;;;;13.77;6.18;;;;;;;17.21;100.00;100728.09;4935343;28;20023;-69
2022/09/08 08:03:38;;;;;;;12.07;6.22;;;;;;;17.29;100.00;100729.53;4936283;28;20031;-70
2022/09/08 08:06:15;;;;;;;11.95;6.28;;;;;;;17.49;100.00;100724.47;4936078;28;20474;-70
2022/09/08 08:08:43;;;;;;;14.02;6.25;;;;;;;17.58;100.00;100733.00;4936157;28;20561;-66
2022/09/08 08:11:27;;;;;;;10.25;6.03;;;;;;;17.80;100.00;100738.47;4934661;28;20057;-65
2022/09/08 08:14:12;;;;;;;11.43;6.65;;;;;;;18.05;100.00;100735.31;4935511;28;20040;-64
2022/09/08 08:17:04;;;;;;;12.95;6.97;;;;;;;18.36;100.00;100733.81;4932355;29;20043;-64
2022/09/08 08:19:46;;;;;;;11.00;6.03;;;;;;;19.66;97.36;100737.53;4932489;29;20031;-64
2022/09/08 08:22:26;;;;;;;8.77;4.70;;;;;;;20.93;87.40;100741.94;4932343;29;20055;-65
2022/09/08 08:25:03;;;;;;;7.50;5.22;;;;;;;21.70;82.05;100733.88;4932268;29;20031;-64
2022/09/08 08:27:39;;;;;;;19.40;6.45;;;;;;;21.48;83.25;100739.56;4932320;29;20032;-64
2022/09/08 08:30:17;;;;;;;11.05;5.25;;;;;;;21.14;84.44;100740.06;4931922;29;20035;-66
2022/09/08 08:32:48;;;;;;;9.30;5.93;;;;;;;20.83;81.16;100740.03;4932260;29;20095;-65
2022/09/08 08:35:27;;;;;;;9.38;4.63;;;;;;;20.23;84.84;100733.31;4932286;29;20091;-65
2022/09/08 08:37:53;;;;;;;8.68;4.18;;;;;;;19.75;85.64;100741.41;4933563;29;20865;-65
2022/09/08 08:40:37;;;;;;;10.07;4.82;;;;;;;19.47;86.58;100740.66;4935781;29;20148;-65
2022/09/08 08:43:23;;;;;;;8.98;4.93;;;;;;;19.37;85.93;100745.16;4935831;29;20039;-64
2022/09/08 08:46:08;;;;;;;9.02;4.53;;;;;;;19.45;88.60;100739.28;4954224;28;20371;-64
2022/09/08 08:48:40;;;;;;;7.45;4.20;;;;;;;19.56;90.89;100732.84;4954250;28;20038;-64
2022/09/08 08:51:36;;;;;;;10.35;5.00;;;;;;;19.62;88.11;100742.66;4954036;28;20031;-64
2022/09/08 08:54:11;;;;;;;6.75;3.80;;;;;;;19.55;86.63;100750.19;4953859;28;20398;-64
2022/09/08 08:57:18;;;;;;;5.65;3.08;;;;;;;19.48;84.80;100755.78;4954022;28;20023;-64
2022/09/08 08:59:59;;;;;;;5.75;3.60;;;;;;;19.13;83.48;100750.09;4953924;29;20023;-64
2022/09/08 09:02:42;;;;;;;8.48;3.20;;;;;;;18.78;86.67;100754.03;4954088;29;20062;-64
2022/09/08 09:05:17;;;;;;;5.47;3.90;;;;;;;18.48;85.10;100751.78;4953924;28;20482;-64
2022/09/08 09:08:16;;;;;;;3.70;2.88;;;;;;;18.29;85.79;100754.00;4953762;29;20046;-64
2022/09/08 09:11:14;;;;;;;4.50;3.13;;;;;;;18.09;86.18;100749.94;4953508;29;20059;-64
2022/09/08 09:13:49;;;;;;;9.63;3.85;;;;;;;18.05;89.39;100742.59;4935391;29;20124;-64
2022/09/08 09:16:40;;;;;;;6.40;3.92;;;;;;;18.08;89.59;100748.31;4935435;29;20035;-64
2022/09/08 09:19:15;;;;;;;6.38;4.05;;;;;;;18.12;90.56;100745.91;4953626;29;20039;-64
2022/09/08 09:22:06;;;;;;;6.15;4.43;;;;;;;18.33;90.83;100755.09;4953590;28;20046;-63
2022/09/08 09:25:02;;;;;;;9.95;5.45;;;;;;;18.59;91.16;100740.03;4953430;29;20027;-64
2022/09/08 09:27:59;;;;;;;5.53;3.20;;;;;;;18.72;86.95;100745.03;4953397;28;20031;-64
2022/09/08 09:30:43;;;;;;;5.47;2.90;;;;;;;18.57;87.41;100748.38;4935999;29;20836;-64
2022/09/08 09:33:23;;;;;;;4.80;3.15;;;;;;;18.40;86.94;100751.16;4935016;29;20030;-64
2022/09/08 09:35:55;;;;;;;8.00;4.50;;;;;;;18.32;87.74;100748.09;4935017;29;20035;-64
2022/09/08 09:38:32;;;;;;;6.95;3.72;;;;;;;18.31;88.08;100746.44;4952759;29;20043;-64
2022/09/08 09:41:28;;;;;;;5.68;2.65;;;;;;;18.37;88.03;100753.56;4952837;29;20031;-64
2022/09/08 09:44:11;;;;;;;4.88;3.08;;;;;;;18.42;87.84;100742.81;4952878;28;20057;-64
2022/09/08 09:47:13;;;;;;;7.70;3.30;;;;;;;18.44;86.63;100745.25;4953256;29;20035;-64
2022/09/08 09:50:18;;;;;;;8.45;3.70;;;;;;;18.46;86.16;100752.03;4952575;28;20162;-64
2022/09/08 09:53:00;;;;;;;3.45;2.38;;;;;;;18.43;85.58;100747.13;4953120;29;20082;-64
2022/09/08 09:55:34;;;;;;;6.13;2.60;;;;;;;18.48;86.81;100749.09;4946207;29;20027;-64
2022/09/08 09:58:22;;;;;;;5.32;2.13;;;;;;;18.61;85.06;100752.22;4934558;29;20032;-64
2022/09/08 10:01:13;;;;;;;3.38;2.40;;;;;;;18.75;84.12;100741.06;4925429;29;20039;-64
2022/09/08 10:03:53;;;;;;;8.38;2.90;;;;;;;18.88;82.48;100740.66;4952901;28;20059;-64
2022/09/08 10:06:27;;;;;;;4.25;2.60;;;;;;;19.07;85.57;100732.19;4952892;29;20031;-64
2022/09/08 10:09:23;;;;;;;7.70;2.97;;;;;;;19.31;81.99;100740.75;4934166;29;20035;-64
2022/09/08 10:12:03;;;;;;;10.02;2.75;;;;;;;19.44;79.59;100743.03;4933464;29;20064;-64
2022/09/08 10:14:36;;;;;;;3.08;1.80;;;;;;;19.39;80.15;100743.84;4952461;29;20030;-64
2022/09/08 10:17:23;;;;;;;3.28;2.03;;;;;;;19.44;78.13;100743.03;4952534;29;20035;-64
2022/09/08 10:20:26;;;;;;;2.08;1.40;;;;;;;19.77;78.13;100738.44;4952538;29;20037;-64
2022/09/08 10:23:28;;;;;;;5.43;2.30;;;;;;;20.05;76.82;100743.50;4952589;28;20136;-64
2022/09/08 10:26:21;;;;;;;4.18;1.80;;;;;;;20.19;75.23;100740.31;4952459;29;20052;-64
2022/09/08 10:29:16;;;;;;;5.28;2.15;;;;;;;20.30;74.22;100750.13;4952539;29;20471;-64
2022/09/08 10:32:13;;;;;;;3.97;1.80;;;;;;;19.98;74.89;100729.38;4952428;28;20035;-64
2022/09/08 10:35:21;;;;;;;5.53;2.35;;;;;;;20.02;72.65;100744.03;4934069;29;20036;-64
2022/09/08 10:37:49;;;;;;;4.32;1.60;;;;;;;20.19;73.70;100738.41;4944130;29;20043;-64
2022/09/08 10:40:37;;;;;;;5.82;1.95;;;;;;;20.51;75.01;100732.03;4952166;29;20084;-64
2022/09/08 10:43:27;;;;;;;2.85;1.40;;;;;;;20.55;73.91;100747.53;4937595;29;20036;-64
2022/09/08 10:46:35;;;;;;;8.35;2.78;;;;;;;20.64;72.76;100739.69;4933308;29;20031;-64
2022/09/08 10:49:12;;;;;;;5.93;1.85;;;;;;;20.70;71.17;100741.38;4951679;29;20054;-64
2022/09/08 10:51:40;;;;;;;4.03;1.75;;;;;;;20.73;71.21;100743.53;4952008;29;20066;-64
2022/09/08 10:54:24;;;;;;;4.68;1.60;;;;;;;20.75;69.31;100735.13;4952081;29;20422;-64
2022/09/08 10:56:50;;;;;;;6.47;2.25;;;;;;;20.96;74.03;100722.44;4951754;29;20063;-64
2022/09/08 11:00:01;;;;;;;6.60;1.80;;;;;;;21.09;71.75;100737.34;4951605;28;20027;-64
2022/09/08 11:02:54;;;;;;;3.22;1.50;;;;;;;21.01;70.47;100728.69;4951922;28;20026;-64
2022/09/08 11:05:41;;;;;;;6.25;2.90;;;;;;;21.05;69.33;100728.16;4942240;28;20055;-65
2022/09/08 11:08:32;;;;;;;5.43;2.35;;;;;;;20.89;68.10;100720.00;4936785;28;20035;-64
2022/09/08 11:11:24;;;;;;;8.20;3.05;;;;;;;20.73;69.61;100721.84;4936930;28;20087;-64
2022/09/08 11:14:18;;;;;;;3.83;1.58;;;;;;;20.85;68.93;100724.31;4936745;28;20104;-67
2022/09/08 11:17:02;;;;;;;3.78;2.75;;;;;;;21.02;67.86;100732.22;4937431;28;20016;-66
2022/09/08 11:19:49;;;;;;;7.63;3.03;;;;;;;21.15;67.79;100734.38;4936405;28;20459;-65
2022/09/08 11:22:34;;;;;;;3.97;1.90;;;;;;;21.17;68.73;100726.00;4936606;28;20043;-65
2022/09/08 11:25:47;;;;;;;3.40;2.03;;;;;;;21.31;69.18;100721.66;4936354;28;20515;-66
2022/09/08 11:28:46;;;;;;;4.05;2.25;;;;;;;21.09;65.57;100731.94;4877309;29;20177;-65
2022/09/08 11:31:35;;;;;;;2.08;1.50;;;;;;;20.94;66.55;100732.75;4936394;28;20038;-65
2022/09/08 11:34:04;;;;;;;4.25;2.10;;;;;;;20.68;67.35;100726.44;4936390;28;20515;-66
2022/09/08 11:36:48;;;;;;;5.15;2.22;;;;;;;20.60;67.70;100729.69;4936422;28;20087;-66
2022/09/08 11:39:39;;;;;;;6.85;2.42;;;;;;;20.52;68.33;100723.66;4936687;28;20039;-65
2022/09/08 11:42:20;;;;;;;5.03;2.03;;;;;;;20.43;69.23;100714.41;4936833;28;20027;-66
2022/09/08 11:45:22;;;;;;;4.68;1.45;;;;;;;20.52;69.35;100714.72;4935834;28;20019;-66
2022/09/08 11:47:59;;;;;;;7.07;2.88;;;;;;;20.86;69.49;100717.00;4936372;28;20027;-66
2022/09/08 11:50:29;;;;;;;5.32;2.33;;;;;;;20.99;66.36;100713.78;4935987;28;20051;-65
2022/09/08 11:53:00;;;;;;;8.68;2.30;;;;;;;20.96;65.93;100711.59;4936988;28;20035;-65
2022/09/08 11:55:38;;;;;;;4.40;2.08;;;;;;;20.72;65.46;100706.69;4935906;28;20212;-65
2022/09/08 11:58:14;;;;;;;5.80;2.22;;;;;;;20.44;67.48;100713.34;4918484;28;20086;-65